Terminal Aerodrome Forecast
Issued by NWS

Home | Current Version | Previous Version | Graphics & Text | Print | Product List | Glossary On
Versions: 1 2 3 4 5 6 7 8 9 10 11 12 13 14 15
000
FTUS43 KFGF 211135
TAFBJI
TAF
KBJI 211135Z 2112/2212 17012G20KT P6SM BKN025 OVC035
     FM211900 16012G18KT P6SM BKN025
      TEMPO 2121/2124 4SM -SHRA BKN020 OVC030
     FM220000 24007KT P6SM BKN035
     FM220300 26007KT P6SM SCT040=

USA.gov is the U.S. government's official web portal to all federal, state and local government web resources and services.